Phoenix Cross — MRBQ7 — position and weather

sailwx.info

Track history (hours):
 
Tides and Currents Weather Stations Pressure Air Temp Water Temp Dewpoint Dewpoint Depression Visibility Wind Speed Wind Dir Waves Ship Positions

Phoenix Cross

Last reported at 2016-May-22 18:12 UTC. Time now 2016-May-24 23:33 UTC.
Position N 54°39' W 001°09'.

Length 30 m; draft 5 m.

Type: Tug. MMSI: 235067452.

Date/timePositionNaut miles runAvg speedWind from/ knotsBaromVisibWave heightAir tempDewpointWater temp
2016-May-22 18:12N 54°39' W 001°09'0 0.0
2016-May-22 06:10N 54°39' W 001°09'0 0.0
2016-May-21 06:33N 54°39' W 001°09'  
2016-May-18 16:29N 54°35' W 001°13'0 0.0
2016-May-18 15:29N 54°35' W 001°13'0 0.0
2016-May-18 14:08N 54°35' W 001°13'0 0.0
2016-May-18 13:33N 54°35' W 001°13'1 1.0
2016-May-18 12:33N 54°35' W 001°11'2 1.7
2016-May-18 11:30N 54°35' W 001°14'2 1.9
2016-May-18 10:30N 54°35' W 001°11'2 2.3
2016-May-18 09:33N 54°38' W 001°10'3 3.2
2016-May-18 08:33N 54°35' W 001°13'0 0.0
2016-May-18 07:33N 54°35' W 001°13'0 0.0
2016-May-18 06:32N 54°35' W 001°13'0 0.0
2016-May-18 05:33N 54°35' W 001°13'2 0.3
2016-May-17 22:33N 54°36' W 001°10'1 1.1
2016-May-17 21:32N 54°37' W 001°09'0 0.3
2016-May-17 20:33N 54°37' W 001°09'0 0.1
2016-May-17 19:33N 54°37' W 001°09'1 0.8
2016-May-17 18:33N 54°38' W 001°10'1 0.5
2016-May-17 17:33N 54°37' W 001°09'2 1.8
2016-May-17 16:33N 54°39' W 001°08'2 1.8
2016-May-17 15:33N 54°37' W 001°09'0 0.1
2016-May-17 14:34N 54°37' W 001°09'0 0.1
2016-May-17 13:33N 54°37' W 001°09'1 1.4
2016-May-17 12:34N 54°36' W 001°10'2 1.8
2016-May-17 11:32N 54°35' W 001°13'0 0.0
2016-May-17 10:31N 54°35' W 001°13'0 0.0
2016-May-17 09:33N 54°35' W 001°13'0 0.1
2016-May-17 08:32N 54°35' W 001°13'0 0.0
2016-May-17 07:33N 54°35' W 001°13'0 0.0
2016-May-17 06:33N 54°35' W 001°13'0 0.0
2016-May-17 05:28N 54°35' W 001°13'0 0.0
2016-May-17 02:18N 54°35' W 001°13'0 0.0
2016-May-17 01:33N 54°35' W 001°13'0 0.0
2016-May-16 22:08N 54°35' W 001°13'0 0.0
2016-May-16 21:16N 54°35' W 001°13'0 0.0
2016-May-16 19:22N 54°35' W 001°13'0 0.0
2016-May-16 18:33N 54°35' W 001°13'0 0.0
2016-May-16 17:33N 54°35' W 001°13'0 0.0
2016-May-16 16:33N 54°35' W 001°13'0 0.0
2016-May-16 15:32N 54°35' W 001°13'0 0.0
2016-May-16 14:33N 54°35' W 001°13'0 0.0
2016-May-16 13:31N 54°35' W 001°13'2 1.9
2016-May-16 12:33N 54°36' W 001°10'2 1.8
2016-May-16 11:31N 54°35' W 001°13'0 0.0
2016-May-16 10:30N 54°35' W 001°13'3 3.1
2016-May-16 09:34N 54°37' W 001°10'1 1.2
2016-May-16 08:33N 54°38' W 001°09'3 3.2
2016-May-16 07:33N 54°35' W 001°11'1 1.1
2016-May-16 06:31N 54°35' W 001°13'0 0.0
2016-May-16 05:31N 54°35' W 001°13'0 0.0
2016-May-16 01:22N 54°35' W 001°13'0 0.0
2016-May-15 19:31N 54°35' W 001°13'0 0.0
2016-May-15 18:33N 54°35' W 001°13'0 0.0
2016-May-15 17:29N 54°35' W 001°13'0 0.0
2016-May-15 16:33N 54°35' W 001°13'0 0.0
2016-May-15 15:33N 54°35' W 001°13'0 0.0
2016-May-15 14:33N 54°35' W 001°13'3 2.9
2016-May-15 13:33N 54°37' W 001°09'1 0.9
2016-May-15 12:33N 54°36' W 001°10'1 0.7
2016-May-15 11:33N 54°37' W 001°09'3 2.8
2016-May-15 10:33N 54°35' W 001°13'0 0.0
2016-May-15 09:33N 54°35' W 001°13'0 0.0
2016-May-15 08:33N 54°35' W 001°13'0 0.0
2016-May-15 07:32N 54°35' W 001°13'0 0.0
2016-May-15 06:31N 54°35' W 001°13'0 0.0
2016-May-15 05:32N 54°35' W 001°13'0 0.0
2016-May-15 04:25N 54°35' W 001°13'0 0.0
2016-May-15 03:09N 54°35' W 001°13'0 0.0
2016-May-15 02:21N 54°35' W 001°13'0 0.0
2016-May-14 22:18N 54°35' W 001°13'0 0.0
2016-May-14 19:33N 54°35' W 001°13'0 0.0
2016-May-14 18:32N 54°35' W 001°13'0 0.0
2016-May-14 17:31N 54°35' W 001°13'0 0.0
2016-May-14 16:32N 54°35' W 001°13'0 0.0
2016-May-14 15:33N 54°35' W 001°13'0 0.0
2016-May-14 14:33N 54°35' W 001°13'0 0.0
2016-May-14 13:33N 54°35' W 001°13'0 0.0
2016-May-14 12:32N 54°35' W 001°13'0 0.0
2016-May-14 11:32N 54°35' W 001°13'0 0.0
2016-May-14 10:31N 54°35' W 001°13'0 0.0
2016-May-14 09:33N 54°35' W 001°13'0 0.3
2016-May-14 08:33N 54°35' W 001°12'2 2.4
2016-May-14 07:33N 54°37' W 001°09'3 2.7
2016-May-14 06:33N 54°35' W 001°13'0 0.0
2016-May-14 05:33N 54°35' W 001°13'0 0.0
2016-May-13 19:11N 54°35' W 001°13'0 0.0
2016-May-13 18:33N 54°35' W 001°13'0 0.0
2016-May-13 17:32N 54°35' W 001°13'3 3.0
2016-May-13 16:34N 54°37' W 001°10'1 0.5
2016-May-13 15:33N 54°37' W 001°09'4 3.5
2016-May-13 14:26N 54°41' W 001°10'1 1.0
2016-May-13 13:33N 54°42' W 001°12'7 7.0
2016-May-13 12:33N 54°35' W 001°13'3 3.2
2016-May-13 11:33N 54°38' W 001°10'1 0.6
2016-May-13 10:33N 54°38' W 001°09'3 3.2
2016-May-13 09:33N 54°35' W 001°12'1 0.7
2016-May-13 08:33N 54°35' W 001°13'0 0.0
2016-May-13 07:31N 54°35' W 001°13'0 0.0
2016-May-13 06:33N 54°35' W 001°13'0 0.0
2016-May-13 05:33N 54°35' W 001°13'0 0.0
2016-May-13 04:29N 54°35' W 001°13'0 0.0
2016-May-12 19:12N 54°35' W 001°13'0 0.0
2016-May-12 18:32N 54°35' W 001°13'  
Track history (hours):
 
Tides and Currents Weather Stations Pressure Air Temp Water Temp Dewpoint Dewpoint Depression Visibility Wind Speed Wind Dir Waves Ship Positions

Phoenix Cross

Last reported at 2016-May-22 18:12 UTC. Time now 2016-May-24 23:33 UTC.
Position N 54°39' W 001°09'.

Length 30 m; draft 5 m.

Type: Tug. MMSI: 235067452.

Date/timePositionNaut miles runAvg speedWind from/ knotsBaromVisibWave heightAir tempDewpointWater temp
2016-May-22 18:12N 54°39' W 001°09'0 0.0
2016-May-22 06:10N 54°39' W 001°09'0 0.0
2016-May-21 06:33N 54°39' W 001°09'  
2016-May-18 16:29N 54°35' W 001°13'0 0.0
2016-May-18 15:29N 54°35' W 001°13'0 0.0
2016-May-18 14:08N 54°35' W 001°13'0 0.0
2016-May-18 13:33N 54°35' W 001°13'1 1.0
2016-May-18 12:33N 54°35' W 001°11'2 1.7
2016-May-18 11:30N 54°35' W 001°14'2 1.9
2016-May-18 10:30N 54°35' W 001°11'2 2.3
2016-May-18 09:33N 54°38' W 001°10'3 3.2
2016-May-18 08:33N 54°35' W 001°13'0 0.0
2016-May-18 07:33N 54°35' W 001°13'0 0.0
2016-May-18 06:32N 54°35' W 001°13'0 0.0
2016-May-18 05:33N 54°35' W 001°13'2 0.3
2016-May-17 22:33N 54°36' W 001°10'1 1.1
2016-May-17 21:32N 54°37' W 001°09'0 0.3
2016-May-17 20:33N 54°37' W 001°09'0 0.1
2016-May-17 19:33N 54°37' W 001°09'1 0.8
2016-May-17 18:33N 54°38' W 001°10'1 0.5
2016-May-17 17:33N 54°37' W 001°09'2 1.8
2016-May-17 16:33N 54°39' W 001°08'2 1.8
2016-May-17 15:33N 54°37' W 001°09'0 0.1
2016-May-17 14:34N 54°37' W 001°09'0 0.1
2016-May-17 13:33N 54°37' W 001°09'1 1.4
2016-May-17 12:34N 54°36' W 001°10'2 1.8
2016-May-17 11:32N 54°35' W 001°13'0 0.0
2016-May-17 10:31N 54°35' W 001°13'0 0.0
2016-May-17 09:33N 54°35' W 001°13'0 0.1
2016-May-17 08:32N 54°35' W 001°13'0 0.0
2016-May-17 07:33N 54°35' W 001°13'0 0.0
2016-May-17 06:33N 54°35' W 001°13'0 0.0
2016-May-17 05:28N 54°35' W 001°13'0 0.0
2016-May-17 02:18N 54°35' W 001°13'0 0.0
2016-May-17 01:33N 54°35' W 001°13'0 0.0
2016-May-16 22:08N 54°35' W 001°13'0 0.0
2016-May-16 21:16N 54°35' W 001°13'0 0.0
2016-May-16 19:22N 54°35' W 001°13'0 0.0
2016-May-16 18:33N 54°35' W 001°13'0 0.0
2016-May-16 17:33N 54°35' W 001°13'0 0.0
2016-May-16 16:33N 54°35' W 001°13'0 0.0
2016-May-16 15:32N 54°35' W 001°13'0 0.0
2016-May-16 14:33N 54°35' W 001°13'0 0.0
2016-May-16 13:31N 54°35' W 001°13'2 1.9
2016-May-16 12:33N 54°36' W 001°10'2 1.8
2016-May-16 11:31N 54°35' W 001°13'0 0.0
2016-May-16 10:30N 54°35' W 001°13'3 3.1
2016-May-16 09:34N 54°37' W 001°10'1 1.2
2016-May-16 08:33N 54°38' W 001°09'3 3.2
2016-May-16 07:33N 54°35' W 001°11'1 1.1
2016-May-16 06:31N 54°35' W 001°13'0 0.0
2016-May-16 05:31N 54°35' W 001°13'0 0.0
2016-May-16 01:22N 54°35' W 001°13'0 0.0
2016-May-15 19:31N 54°35' W 001°13'0 0.0
2016-May-15 18:33N 54°35' W 001°13'0 0.0
2016-May-15 17:29N 54°35' W 001°13'0 0.0
2016-May-15 16:33N 54°35' W 001°13'0 0.0
2016-May-15 15:33N 54°35' W 001°13'0 0.0
2016-May-15 14:33N 54°35' W 001°13'3 2.9
2016-May-15 13:33N 54°37' W 001°09'1 0.9
2016-May-15 12:33N 54°36' W 001°10'1 0.7
2016-May-15 11:33N 54°37' W 001°09'3 2.8
2016-May-15 10:33N 54°35' W 001°13'0 0.0
2016-May-15 09:33N 54°35' W 001°13'0 0.0
2016-May-15 08:33N 54°35' W 001°13'0 0.0
2016-May-15 07:32N 54°35' W 001°13'0 0.0
2016-May-15 06:31N 54°35' W 001°13'0 0.0
2016-May-15 05:32N 54°35' W 001°13'0 0.0
2016-May-15 04:25N 54°35' W 001°13'0 0.0
2016-May-15 03:09N 54°35' W 001°13'0 0.0
2016-May-15 02:21N 54°35' W 001°13'0 0.0
2016-May-14 22:18N 54°35' W 001°13'0 0.0
2016-May-14 19:33N 54°35' W 001°13'0 0.0
2016-May-14 18:32N 54°35' W 001°13'0 0.0
2016-May-14 17:31N 54°35' W 001°13'0 0.0
2016-May-14 16:32N 54°35' W 001°13'0 0.0
2016-May-14 15:33N 54°35' W 001°13'0 0.0
2016-May-14 14:33N 54°35' W 001°13'0 0.0
2016-May-14 13:33N 54°35' W 001°13'0 0.0
2016-May-14 12:32N 54°35' W 001°13'0 0.0
2016-May-14 11:32N 54°35' W 001°13'0 0.0
2016-May-14 10:31N 54°35' W 001°13'0 0.0
2016-May-14 09:33N 54°35' W 001°13'0 0.3
2016-May-14 08:33N 54°35' W 001°12'2 2.4
2016-May-14 07:33N 54°37' W 001°09'3 2.7
2016-May-14 06:33N 54°35' W 001°13'0 0.0
2016-May-14 05:33N 54°35' W 001°13'0 0.0
2016-May-13 19:11N 54°35' W 001°13'0 0.0
2016-May-13 18:33N 54°35' W 001°13'0 0.0
2016-May-13 17:32N 54°35' W 001°13'3 3.0
2016-May-13 16:34N 54°37' W 001°10'1 0.5
2016-May-13 15:33N 54°37' W 001°09'4 3.5
2016-May-13 14:26N 54°41' W 001°10'1 1.0
2016-May-13 13:33N 54°42' W 001°12'7 7.0
2016-May-13 12:33N 54°35' W 001°13'3 3.2
2016-May-13 11:33N 54°38' W 001°10'1 0.6
2016-May-13 10:33N 54°38' W 001°09'3 3.2
2016-May-13 09:33N 54°35' W 001°12'1 0.7
2016-May-13 08:33N 54°35' W 001°13'0 0.0
2016-May-13 07:31N 54°35' W 001°13'0 0.0
2016-May-13 06:33N 54°35' W 001°13'0 0.0
2016-May-13 05:33N 54°35' W 001°13'0 0.0
2016-May-13 04:29N 54°35' W 001°13'0 0.0
2016-May-12 19:12N 54°35' W 001°13'0 0.0
2016-May-12 18:32N 54°35' W 001°13'  

Dump ship's entire track history